Time;durP1;ratioP1;P1;durP2;ratioP2;P2;SDS_P1;SDS_P2;PMS_P1;PMS_P2;Temp;Humidity;BMP_temperature;BMP_pressure;BME280_temperature;BME280_humidity;BME280_pressure;Samples;Min_cycle;Max_cycle;Signal;HPM_P1;HPM_P2
2022/04/29 00:03:35;;;;;;;13.90;8.10;;;;;;;7.42;100.00;103121.13;10359561;28;20038;-75
2022/04/29 00:08:36;;;;;;;24.55;8.68;;;;;;;7.38;100.00;103121.50;10376587;28;20032;-76
2022/04/29 00:13:36;;;;;;;7.93;7.10;;;;;;;7.27;100.00;103121.47;10359433;28;20209;-75
2022/04/29 00:18:37;;;;;;;7.95;7.25;;;;;;;7.30;100.00;103113.16;10359757;28;20042;-75
2022/04/29 00:23:37;;;;;;;9.50;7.70;;;;;;;7.33;100.00;103107.53;10377044;28;20084;-75
2022/04/29 00:28:38;;;;;;;14.85;6.72;;;;;;;7.21;100.00;103103.94;10375307;28;20037;-75
2022/04/29 00:33:38;;;;;;;16.90;6.97;;;;;;;7.17;100.00;103100.66;10375893;28;20045;-75
2022/04/29 00:38:38;;;;;;;8.93;5.80;;;;;;;7.18;100.00;103099.69;10359811;28;20037;-75
2022/04/29 00:43:39;;;;;;;10.85;5.05;;;;;;;7.16;99.77;103100.78;10377164;28;20466;-75
2022/04/29 00:48:39;;;;;;;11.25;4.75;;;;;;;7.16;98.36;103107.03;10377377;28;20112;-75
2022/04/29 00:53:41;;;;;;;8.45;4.50;;;;;;;7.11;97.93;103089.50;10375626;28;20041;-75
2022/04/29 00:58:43;;;;;;;8.18;4.82;;;;;;;7.12;97.02;103089.41;10374978;28;20105;-75
2022/04/29 01:03:44;;;;;;;6.53;3.72;;;;;;;7.07;96.35;103094.28;10357851;28;20034;-75
2022/04/29 01:08:44;;;;;;;7.10;4.18;;;;;;;7.05;96.33;103085.47;10357873;28;20073;-75
2022/04/29 01:13:45;;;;;;;5.72;4.18;;;;;;;6.97;96.83;103077.97;10376350;28;20037;-76
2022/04/29 01:18:46;;;;;;;9.32;5.80;;;;;;;6.96;96.54;103065.50;10360921;28;20033;-75
2022/04/29 01:23:46;;;;;;;9.75;5.65;;;;;;;6.99;96.77;103077.88;10381767;28;20042;-75
2022/04/29 01:28:46;;;;;;;11.00;5.47;;;;;;;6.98;96.64;103073.44;10365280;28;20073;-75
2022/04/29 01:33:47;;;;;;;15.82;5.57;;;;;;;6.92;97.14;103066.72;10365409;28;20151;-75
2022/04/29 01:38:48;;;;;;;11.57;5.22;;;;;;;6.96;96.08;103067.34;10384014;28;20411;-75
2022/04/29 01:43:48;;;;;;;7.18;4.40;;;;;;;6.78;98.03;103052.63;10382185;28;20048;-76
2022/04/29 01:48:49;;;;;;;11.52;5.65;;;;;;;6.70;98.78;103051.38;10381996;28;20359;-75
2022/04/29 01:53:53;;;;;;;9.68;6.22;;;;;;;6.69;98.47;103059.56;10366252;28;20046;-75
2022/04/29 01:58:54;;;;;;;19.77;5.82;;;;;;;6.73;97.21;103051.16;10365104;28;20033;-75
2022/04/29 02:03:54;;;;;;;7.80;6.82;;;;;;;6.62;99.25;103050.25;10381961;28;20022;-75
2022/04/29 02:08:55;;;;;;;17.77;6.63;;;;;;;6.70;96.80;103055.88;10381261;28;20410;-75
2022/04/29 02:13:55;;;;;;;15.68;7.13;;;;;;;6.73;96.11;103061.91;10391145;28;20509;-76
2022/04/29 02:18:56;;;;;;;11.07;7.15;;;;;;;6.71;96.20;103069.25;10393399;28;20038;-75
2022/04/29 02:23:56;;;;;;;7.30;6.20;;;;;;;6.74;94.75;103060.94;10356092;28;20366;-75
2022/04/29 02:28:57;;;;;;;10.07;7.00;;;;;;;6.70;96.68;103061.28;10375761;28;20049;-75
2022/04/29 02:33:57;;;;;;;24.90;8.10;;;;;;;6.66;97.44;103052.56;10371715;28;20038;-75
2022/04/29 02:38:58;;;;;;;7.68;6.60;;;;;;;6.62;98.52;103051.09;10380058;28;20066;-75
2022/04/29 02:43:58;;;;;;;12.50;7.32;;;;;;;6.64;99.03;103042.94;10379974;28;20030;-75
2022/04/29 02:48:58;;;;;;;14.75;8.32;;;;;;;6.66;97.40;103043.66;10380715;28;20441;-75
2022/04/29 02:53:59;;;;;;;16.85;7.22;;;;;;;6.58;98.83;103046.09;10379744;28;20030;-75
2022/04/29 02:58:59;;;;;;;10.40;7.55;;;;;;;6.57;96.80;103039.81;10379516;28;20034;-75
2022/04/29 03:04:00;;;;;;;9.40;6.80;;;;;;;6.55;96.31;103041.78;10380568;28;20041;-75
2022/04/29 03:09:00;;;;;;;10.98;7.55;;;;;;;6.54;95.14;103050.84;10361729;28;20060;-75
2022/04/29 03:14:01;;;;;;;10.43;7.25;;;;;;;6.44;98.23;103047.13;10379653;28;20064;-75
2022/04/29 03:19:01;;;;;;;13.02;7.47;;;;;;;6.37;100.00;103041.38;10378804;28;20030;-75
2022/04/29 03:24:03;;;;;;;12.50;8.20;;;;;;;6.42;99.61;103047.28;10377200;28;20121;-75
2022/04/29 03:29:04;;;;;;;12.73;7.50;;;;;;;6.44;98.04;103031.84;10361998;28;20362;-75
2022/04/29 03:34:04;;;;;;;9.63;6.20;;;;;;;6.34;100.00;103019.22;10377269;28;20034;-75
2022/04/29 03:39:05;;;;;;;13.18;6.93;;;;;;;6.22;100.00;103013.81;10360470;28;20382;-75
2022/04/29 03:44:05;;;;;;;13.48;7.75;;;;;;;6.16;100.00;103013.41;10376845;28;20062;-75
2022/04/29 03:54:24;;;;;;;12.80;6.85;;;;;;;6.09;100.00;103002.25;10376739;28;20407;-75
2022/04/29 03:59:25;;;;;;;12.30;8.07;;;;;;;6.05;100.00;102996.25;10377334;28;20113;-75
2022/04/29 04:04:25;;;;;;;13.25;6.50;;;;;;;6.02;100.00;102995.63;10377128;28;20066;-75
2022/04/29 04:09:26;;;;;;;11.50;7.97;;;;;;;6.03;100.00;102994.66;10376972;28;20038;-75
2022/04/29 04:14:26;;;;;;;12.15;8.38;;;;;;;6.03;100.00;102994.66;10377249;28;20084;-75
2022/04/29 04:19:26;;;;;;;11.18;8.13;;;;;;;6.08;100.00;102986.25;10358896;28;20062;-75
2022/04/29 04:24:27;;;;;;;20.27;9.38;;;;;;;6.06;100.00;102986.34;10376398;28;20041;-75
2022/04/29 04:29:27;;;;;;;16.15;8.27;;;;;;;6.16;100.00;102987.38;10342698;28;20048;-75
2022/04/29 04:39:48;;;;;;;13.52;7.78;;;;;;;6.27;100.00;103000.84;10375111;28;20046;-75
2022/04/29 04:44:49;;;;;;;11.10;8.15;;;;;;;6.32;100.00;103005.91;10358572;28;20103;-74
2022/04/29 04:49:49;;;;;;;10.00;7.65;;;;;;;6.37;98.64;103011.75;10376225;28;20042;-75
2022/04/29 04:54:49;;;;;;;24.20;8.10;;;;;;;6.38;99.32;103020.69;10375375;28;20413;-75
2022/04/29 04:59:50;;;;;;;18.55;8.82;;;;;;;6.41;100.00;103020.47;10376317;28;20466;-75
2022/04/29 05:04:50;;;;;;;22.80;7.72;;;;;;;6.40;100.00;103019.59;10375482;28;20120;-75
2022/04/29 05:09:51;;;;;;;15.98;8.10;;;;;;;6.48;100.00;103014.50;10381000;28;20441;-74
2022/04/29 05:14:51;;;;;;;20.10;8.68;;;;;;;6.59;100.00;103016.34;10383253;28;20042;-74
2022/04/29 05:19:51;;;;;;;9.98;8.23;;;;;;;6.72;100.00;103019.78;10375093;28;20066;-74
2022/04/29 05:24:52;;;;;;;13.75;6.55;;;;;;;6.96;100.00;103008.94;10376064;28;20489;-74
2022/04/29 05:29:52;;;;;;;19.02;7.95;;;;;;;7.09;100.00;103002.56;10375743;28;20038;-73
2022/04/29 05:34:53;;;;;;;11.23;6.70;;;;;;;7.26;100.00;103025.44;10374504;28;20474;-75
2022/04/29 05:45:12;;;;;;;23.70;9.35;;;;;;;7.66;98.53;103014.97;10374234;28;20421;-75
2022/04/29 05:50:12;;;;;;;11.88;6.63;;;;;;;7.51;98.69;103027.88;10376034;28;20121;-75
2022/04/29 05:55:13;;;;;;;21.40;5.93;;;;;;;7.57;98.18;103024.69;10375226;28;20506;-75
2022/04/29 06:00:14;;;;;;;12.32;5.63;;;;;;;7.56;98.18;103032.88;10356797;28;20029;-75
2022/04/29 06:05:15;;;;;;;9.95;5.60;;;;;;;7.71;97.76;103033.47;10377139;28;20516;-75
2022/04/29 06:10:16;;;;;;;8.93;6.15;;;;;;;7.97;97.08;103039.41;10393204;28;20041;-75
2022/04/29 06:15:17;;;;;;;12.05;7.45;;;;;;;8.35;95.71;103049.66;10358346;28;20080;-75
2022/04/29 06:20:17;;;;;;;13.55;6.38;;;;;;;8.66;94.01;103044.38;10354665;28;20076;-76
2022/04/29 06:25:20;;;;;;;17.15;6.35;;;;;;;8.68;92.97;103053.19;10380287;28;20042;-75
2022/04/29 06:30:21;;;;;;;16.80;6.82;;;;;;;8.91;92.79;103053.94;10362981;28;20547;-75
2022/04/29 06:35:21;;;;;;;9.85;6.28;;;;;;;9.05;91.88;103058.97;10380134;28;20076;-75
2022/04/29 06:40:22;;;;;;;13.15;6.00;;;;;;;9.07;91.68;103048.88;10380300;28;20036;-75
2022/04/29 06:45:22;;;;;;;13.90;5.30;;;;;;;9.58;90.58;103047.09;10379809;28;20057;-75
2022/04/29 06:50:23;;;;;;;5.63;5.22;;;;;;;9.58;88.75;103057.91;10378689;28;20052;-75
2022/04/29 06:55:24;;;;;;;8.70;6.13;;;;;;;9.44;87.96;103054.56;10380773;28;20068;-75
2022/04/29 07:00:24;;;;;;;26.83;7.47;;;;;;;9.15;88.34;103056.31;10379993;28;20421;-75
2022/04/29 07:05:25;;;;;;;11.48;5.28;;;;;;;8.81;89.57;103043.06;10379299;28;20548;-75
2022/04/29 07:10:28;;;;;;;9.73;6.22;;;;;;;8.62;90.77;103043.78;10379096;28;20062;-75
2022/04/29 07:15:29;;;;;;;10.15;6.45;;;;;;;8.52;91.03;103041.03;10378280;28;20129;-75
2022/04/29 07:20:30;;;;;;;7.93;6.00;;;;;;;8.51;91.58;103033.91;10379091;28;20045;-75
2022/04/29 07:25:30;;;;;;;8.13;5.15;;;;;;;8.45;90.94;103028.16;10378512;28;20041;-75
2022/04/29 07:30:31;;;;;;;15.10;6.60;;;;;;;8.54;90.80;103027.38;10379732;28;20030;-75
2022/04/29 07:46:10;;;;;;;7.15;4.55;;;;;;;9.29;88.07;103045.13;10377068;28;20401;-75
2022/04/29 07:51:10;;;;;;;8.52;5.68;;;;;;;9.33;87.12;103030.34;10364212;28;20033;-75
2022/04/29 07:56:11;;;;;;;8.48;6.43;;;;;;;9.19;87.40;103037.00;10388070;28;20065;-76
2022/04/29 08:01:11;;;;;;;11.70;5.57;;;;;;;9.36;87.93;103040.88;10363211;28;20465;-75
2022/04/29 08:06:11;;;;;;;8.18;4.88;;;;;;;9.54;87.11;103047.34;10377061;28;20038;-75
2022/04/29 08:11:12;;;;;;;13.25;6.93;;;;;;;9.55;86.44;103049.06;10344616;28;20042;-75
2022/04/29 08:16:12;;;;;;;15.13;6.32;;;;;;;9.58;85.69;103055.19;10375827;28;20053;-75
2022/04/29 08:21:13;;;;;;;7.00;4.45;;;;;;;9.49;86.26;103052.31;10377124;28;20030;-75
2022/04/29 08:26:14;;;;;;;9.05;5.75;;;;;;;9.54;85.82;103063.59;10376420;28;20041;-75
2022/04/29 08:31:14;;;;;;;12.18;5.72;;;;;;;9.52;86.16;103064.72;10359141;28;20030;-75
2022/04/29 08:36:15;;;;;;;17.90;5.07;;;;;;;9.78;86.08;103062.34;10358528;28;20084;-75
2022/04/29 08:41:18;;;;;;;13.15;4.95;;;;;;;9.99;84.83;103056.84;10375650;28;20088;-75
2022/04/29 08:46:20;;;;;;;25.75;6.53;;;;;;;10.11;84.06;103065.66;10358772;28;20390;-75
2022/04/29 08:51:20;;;;;;;8.52;5.60;;;;;;;10.20;83.50;103075.66;10376788;28;20030;-75
2022/04/29 09:01:40;;;;;;;5.18;4.13;;;;;;;10.21;82.05;103072.81;10374703;28;20034;-75
2022/04/29 09:06:50;;;;;;;38.22;5.50;;;;;;;10.04;82.53;103061.81;10373959;28;20026;-75
2022/04/29 09:11:51;;;;;;;6.93;4.88;;;;;;;10.22;82.71;103054.72;10375112;28;20048;-74
2022/04/29 09:16:51;;;;;;;6.00;4.70;;;;;;;10.32;81.64;103061.00;10371918;28;20045;-75
2022/04/29 09:22:05;;;;;;;5.63;4.97;;;;;;;10.45;81.38;103053.44;10357268;28;20097;-75
2022/04/29 09:27:06;;;;;;;8.93;4.97;;;;;;;10.58;80.97;103041.47;10357726;28;20179;-75
2022/04/29 09:32:07;;;;;;;8.82;5.88;;;;;;;10.52;80.67;103023.91;10357300;28;20030;-75
2022/04/29 09:37:17;;;;;;;7.78;4.65;;;;;;;10.66;79.82;103018.06;10375259;28;20042;-75
2022/04/29 09:42:18;;;;;;;5.05;4.57;;;;;;;10.59;79.39;103035.03;10381369;28;20065;-75
2022/04/29 09:47:19;;;;;;;9.85;5.72;;;;;;;10.60;79.26;103024.06;10365677;28;20067;-75
2022/04/29 09:52:20;;;;;;;5.07;4.40;;;;;;;10.58;80.03;103038.75;10382395;28;20040;-75
2022/04/29 09:57:23;;;;;;;10.90;4.75;;;;;;;10.70;78.90;103064.69;10381597;28;20096;-75
2022/04/29 10:02:25;;;;;;;6.20;4.40;;;;;;;10.62;79.75;103054.56;10382705;28;20033;-75
2022/04/29 10:07:25;;;;;;;7.22;5.43;;;;;;;10.59;80.57;103060.28;10371365;28;20030;-75
2022/04/29 10:12:26;;;;;;;11.15;5.07;;;;;;;10.92;79.33;103060.78;10355316;28;20038;-75
2022/04/29 10:22:49;;;;;;;9.70;4.32;;;;;;;11.81;77.56;103063.81;10365676;28;20030;-75
2022/04/29 10:27:50;;;;;;;4.05;3.70;;;;;;;12.19;75.21;103051.00;10363608;28;20022;-75
2022/04/29 10:33:01;;;;;;;5.65;4.22;;;;;;;12.45;74.55;103033.91;10383894;28;20112;-75
2022/04/29 10:38:36;;;;;;;16.40;5.40;;;;;;;13.22;73.86;103032.16;10388427;28;20038;-75
2022/04/29 10:43:43;;;;;;;14.18;4.57;;;;;;;14.32;71.30;103025.63;10382566;28;20459;-75
2022/04/29 10:48:43;;;;;;;13.15;3.78;;;;;;;14.63;64.54;103025.81;10380250;28;20076;-75
2022/04/29 10:53:49;;;;;;;7.85;4.53;;;;;;;14.31;64.75;103029.38;10379094;28;20052;-75
2022/04/29 10:58:49;;;;;;;5.68;3.78;;;;;;;14.80;63.92;103025.78;10361890;28;20152;-76
2022/04/29 11:03:50;;;;;;;4.63;3.97;;;;;;;14.99;59.23;103030.84;10361677;28;20069;-75
2022/04/29 11:08:51;;;;;;;3.95;2.80;;;;;;;15.46;61.18;103043.66;10361189;28;20042;-75
2022/04/29 11:13:57;;;;;;;5.20;4.43;;;;;;;16.33;57.03;103039.88;10361256;28;20508;-75
2022/04/29 11:19:17;;;;;;;;;;;;;;;16.88;53.53;103030.50;10362065;28;20037;-76
2022/04/29 11:29:42;;;;;;;5.45;4.03;;;;;;;15.32;58.95;103022.56;10349985;28;20038;-75
2022/04/29 11:34:52;;;;;;;;;;;;;;;14.62;59.04;103021.41;10377138;28;20060;-76
2022/04/29 11:39:56;;;;;;;3.58;3.30;;;;;;;13.93;63.04;103014.53;10377976;28;20070;-75
2022/04/29 11:45:07;;;;;;;7.18;3.80;;;;;;;14.42;61.66;103020.00;10377596;28;20053;-76
2022/04/29 11:50:08;;;;;;;9.95;5.35;;;;;;;14.74;62.37;103007.38;10377271;28;20037;-75
2022/04/29 11:55:13;;;;;;;8.80;5.22;;;;;;;16.23;57.69;103001.88;10377128;28;20050;-76
2022/04/29 12:00:25;;;;;;;7.22;4.93;;;;;;;17.65;56.87;102997.19;10377909;28;20030;-76
2022/04/29 12:05:27;;;;;;;4.65;4.20;;;;;;;18.66;51.53;102992.44;10376272;28;20116;-74
2022/04/29 12:10:29;;;;;;;5.18;3.75;;;;;;;19.05;47.61;102999.28;10358797;28;20041;-76
2022/04/29 12:15:31;;;;;;;4.43;3.28;;;;;;;17.67;50.33;102986.88;10359966;28;20088;-76
2022/04/29 12:20:31;;;;;;;5.38;4.88;;;;;;;16.62;53.24;102982.50;10342260;28;20057;-76
2022/04/29 12:25:38;;;;;;;7.72;3.70;;;;;;;16.10;54.02;102996.16;10358540;28;20033;-76
2022/04/29 12:36:12;;;;;;;10.52;4.05;;;;;;;15.92;54.90;102978.22;10347425;28;20041;-76
2022/04/29 12:41:27;;;;;;;4.35;3.95;;;;;;;16.16;54.09;102973.56;10358515;28;20062;-76
2022/04/29 12:46:29;;;;;;;10.10;4.53;;;;;;;16.89;53.81;102983.81;10359789;28;20156;-75
2022/04/29 12:51:32;;;;;;;7.63;5.07;;;;;;;17.32;51.36;102977.63;10358610;28;20080;-76
2022/04/29 12:56:33;;;;;;;6.20;5.60;;;;;;;17.34;51.77;102973.66;10376533;28;20042;-76
2022/04/29 13:01:38;;;;;;;8.15;5.78;;;;;;;17.05;52.49;102968.22;10325314;28;20026;-76
2022/04/29 13:06:38;;;;;;;7.32;4.78;;;;;;;16.84;52.51;102958.03;10341076;28;20037;-76
2022/04/29 13:11:39;;;;;;;5.50;5.07;;;;;;;16.16;55.27;102970.84;10357613;28;20042;-76
2022/04/29 13:16:39;;;;;;;5.57;4.63;;;;;;;15.59;56.50;102970.19;10342933;28;20049;-76
2022/04/29 13:21:39;;;;;;;7.22;5.35;;;;;;;15.30;58.63;102961.84;10364830;28;20085;-75
2022/04/29 13:26:40;;;;;;;7.93;5.40;;;;;;;14.61;59.79;102965.16;10360941;28;20430;-75
2022/04/29 13:31:40;;;;;;;8.98;5.95;;;;;;;15.03;59.20;102961.28;10356559;28;20037;-76
2022/04/29 13:36:41;;;;;;;16.70;5.32;;;;;;;16.04;58.32;102957.59;10356554;28;20492;-76
2022/04/29 13:41:41;;;;;;;9.65;6.00;;;;;;;15.92;55.31;102952.75;10340412;28;20457;-76
2022/04/29 13:46:41;;;;;;;5.50;4.78;;;;;;;16.10;55.62;102952.44;10372888;28;20085;-76
2022/04/29 13:51:42;;;;;;;11.73;4.28;;;;;;;16.58;54.66;102942.91;10356748;28;20049;-76
2022/04/29 13:56:42;;;;;;;4.78;4.40;;;;;;;16.58;53.07;102936.59;10372293;28;20111;-76
2022/04/29 14:01:43;;;;;;;8.57;5.13;;;;;;;16.84;52.01;102931.50;10340323;28;20121;-76
2022/04/29 14:06:43;;;;;;;4.88;4.43;;;;;;;17.03;52.42;102931.97;10362689;28;20042;-76
2022/04/29 14:11:44;;;;;;;5.80;4.97;;;;;;;17.12;52.02;102934.41;10362736;28;20102;-76
2022/04/29 14:16:44;;;;;;;5.45;4.95;;;;;;;16.57;52.58;102935.75;10363074;28;20045;-76
2022/04/29 14:21:46;;;;;;;6.38;4.57;;;;;;;16.03;54.25;102925.84;10359144;28;20389;-76
2022/04/29 14:26:47;;;;;;;5.25;4.75;;;;;;;15.70;54.40;102918.97;10379920;28;20034;-76
2022/04/29 14:31:47;;;;;;;9.55;4.72;;;;;;;14.69;58.34;102919.81;10365984;28;20058;-76
2022/04/29 14:36:54;;;;;;;6.97;5.03;;;;;;;14.35;60.13;102929.03;10332599;28;20060;-76
2022/04/29 14:41:56;;;;;;;5.57;5.07;;;;;;;14.43;60.61;102919.00;10363594;28;20037;-76
2022/04/29 14:46:58;;;;;;;7.85;5.72;;;;;;;13.44;62.68;102924.63;10380292;28;20439;-75
2022/04/29 14:51:58;;;;;;;9.35;5.78;;;;;;;13.65;63.23;102922.25;10379178;28;20045;-76
2022/04/29 14:56:59;;;;;;;5.47;4.97;;;;;;;13.79;63.19;102930.78;10362305;28;20156;-76
2022/04/29 15:01:59;;;;;;;15.38;5.80;;;;;;;14.09;62.87;102927.38;10361291;28;20448;-76
2022/04/29 15:07:00;;;;;;;7.05;5.43;;;;;;;14.23;62.03;102925.84;10379229;28;20058;-76
2022/04/29 15:17:21;;;;;;;7.18;6.60;;;;;;;13.89;61.47;102932.31;10364060;28;20042;-76
2022/04/29 15:22:22;;;;;;;5.57;5.10;;;;;;;13.92;61.44;102929.25;10361196;28;20521;-76
2022/04/29 15:27:23;;;;;;;9.15;5.30;;;;;;;14.07;61.82;102921.25;10344898;28;20096;-76
2022/04/29 15:32:23;;;;;;;8.63;5.10;;;;;;;14.15;61.27;102932.13;10360338;28;20177;-76
2022/04/29 15:37:24;;;;;;;5.70;5.20;;;;;;;14.09;60.70;102923.81;10344346;28;20088;-76
2022/04/29 15:42:24;;;;;;;10.93;6.18;;;;;;;13.99;60.56;102914.97;10359806;28;20446;-76
2022/04/29 15:47:24;;;;;;;5.18;4.78;;;;;;;14.18;60.20;102915.44;10359993;28;20501;-76
2022/04/29 15:52:25;;;;;;;8.10;5.40;;;;;;;14.09;60.00;102910.19;10360598;28;20030;-76
2022/04/29 15:57:25;;;;;;;9.98;5.72;;;;;;;13.71;61.25;102918.84;10378076;28;20030;-76
2022/04/29 16:02:26;;;;;;;8.85;5.68;;;;;;;13.76;60.99;102914.78;10381562;28;20390;-76
2022/04/29 16:07:26;;;;;;;9.90;6.22;;;;;;;13.62;61.67;102908.97;10381775;28;20144;-76
2022/04/29 16:12:27;;;;;;;15.50;6.13;;;;;;;13.28;62.66;102906.38;10360462;28;20537;-76
2022/04/29 16:28:05;;;;;;;6.00;5.43;;;;;;;12.98;63.53;102896.91;10374876;28;20396;-76
2022/04/29 16:33:06;;;;;;;7.30;5.47;;;;;;;12.86;64.02;102900.91;10376606;28;20029;-76
2022/04/29 16:38:06;;;;;;;8.02;6.55;;;;;;;12.31;65.09;102889.44;10375224;28;20057;-76
2022/04/29 16:43:09;;;;;;;6.93;5.75;;;;;;;12.21;66.05;102898.72;10374966;28;20486;-76
2022/04/29 16:48:09;;;;;;;6.78;6.07;;;;;;;11.99;66.40;102897.34;10356688;28;20045;-76
2022/04/29 16:53:10;;;;;;;8.02;5.90;;;;;;;11.81;67.90;102898.22;10341384;28;20113;-75
2022/04/29 17:03:29;;;;;;;11.50;4.18;;;;;;;11.49;68.64;102892.50;10373820;28;20037;-75
2022/04/29 17:08:30;;;;;;;6.85;4.53;;;;;;;11.54;68.75;102896.44;10375087;28;20033;-75
2022/04/29 17:13:31;;;;;;;5.15;4.75;;;;;;;11.81;67.57;102897.38;10373709;28;20058;-75
2022/04/29 17:18:31;;;;;;;7.00;4.68;;;;;;;11.97;67.28;102904.84;10357799;28;20061;-76
2022/04/29 17:23:32;;;;;;;5.45;4.65;;;;;;;11.75;67.12;102912.41;10342689;28;20474;-75
2022/04/29 17:28:32;;;;;;;4.45;4.05;;;;;;;11.74;67.61;102902.56;10356675;28;20026;-76
2022/04/29 17:33:34;;;;;;;5.22;4.20;;;;;;;11.83;67.42;102914.34;10356413;28;20030;-75
2022/04/29 17:38:35;;;;;;;4.88;3.83;;;;;;;11.96;65.94;102909.38;10341148;28;20430;-75
2022/04/29 17:43:35;;;;;;;9.75;4.00;;;;;;;12.07;65.53;102916.44;10356935;28;20037;-76
2022/04/29 17:48:36;;;;;;;5.25;4.28;;;;;;;11.71;66.90;102919.16;10358110;28;20050;-75
2022/04/29 17:53:36;;;;;;;8.57;4.07;;;;;;;11.48;67.66;102918.75;10373793;28;20048;-75
2022/04/29 17:58:37;;;;;;;7.82;3.63;;;;;;;11.07;67.93;102917.44;10373724;28;20030;-75
2022/04/29 18:03:37;;;;;;;4.22;3.42;;;;;;;11.03;68.21;102925.03;10379977;28;20489;-75
2022/04/29 18:08:37;;;;;;;5.55;3.67;;;;;;;10.89;69.16;102914.72;10389537;28;20038;-75
2022/04/29 18:13:40;;;;;;;3.45;3.03;;;;;;;10.81;68.61;102925.44;10390830;28;20075;-76
2022/04/29 18:18:40;;;;;;;4.38;3.42;;;;;;;10.68;69.30;102920.34;10387853;28;20033;-75
2022/04/29 18:23:41;;;;;;;4.43;2.90;;;;;;;10.66;69.69;102923.22;10385707;28;20056;-76
2022/04/29 18:28:42;;;;;;;6.05;4.00;;;;;;;10.67;70.89;102929.50;10384679;28;20037;-75
2022/04/29 18:33:42;;;;;;;7.10;3.08;;;;;;;10.70;72.06;102946.31;10381842;28;20064;-75
2022/04/29 18:38:42;;;;;;;9.45;3.92;;;;;;;10.65;71.49;102942.31;10381379;28;20176;-76
2022/04/29 18:43:44;;;;;;;4.13;3.55;;;;;;;10.49;72.08;102942.94;10366847;28;20049;-76
2022/04/29 18:48:44;;;;;;;5.97;4.38;;;;;;;10.40;72.81;102944.69;10356706;28;20050;-76
2022/04/29 18:53:45;;;;;;;12.38;4.03;;;;;;;10.16;73.69;102949.69;10369014;28;20557;-77
2022/04/29 18:58:45;;;;;;;8.50;4.18;;;;;;;9.92;75.15;102953.72;10379517;28;20085;-77
2022/04/29 19:03:46;;;;;;;5.22;4.68;;;;;;;9.89;75.26;102956.72;10380344;28;20057;-77
2022/04/29 19:08:46;;;;;;;10.73;5.00;;;;;;;9.97;74.64;102961.38;10362034;28;20116;-77
2022/04/29 19:13:46;;;;;;;13.68;5.20;;;;;;;9.87;74.88;102961.41;10377705;28;20112;-73
2022/04/29 19:18:47;;;;;;;5.45;4.65;;;;;;;9.82;75.89;102963.66;10361998;28;20036;-77
2022/04/29 19:23:47;;;;;;;8.45;5.05;;;;;;;9.72;76.81;102968.22;10379347;28;20468;-76
2022/04/29 19:28:48;;;;;;;7.25;4.35;;;;;;;9.68;78.00;102977.63;10378668;28;20493;-76
2022/04/29 19:33:49;;;;;;;18.70;4.53;;;;;;;9.75;77.34;102978.75;10378504;28;20109;-75
2022/04/29 19:38:50;;;;;;;7.28;4.90;;;;;;;9.90;76.62;102985.47;10377011;28;20030;-75
2022/04/29 19:43:52;;;;;;;7.57;5.18;;;;;;;9.91;76.82;102989.88;10377468;28;20089;-75
2022/04/29 19:48:53;;;;;;;10.65;4.80;;;;;;;9.90;75.53;103003.56;10376040;28;20480;-75
2022/04/29 19:53:53;;;;;;;5.68;5.03;;;;;;;9.80;76.06;103013.53;10377699;28;20045;-76
2022/04/29 19:59:12;;;;;;;4.47;4.07;;;;;;;9.60;77.45;103018.03;10377373;28;20369;-75
2022/04/29 20:04:15;;;;;;;9.45;5.15;;;;;;;9.38;78.75;103009.16;10376312;28;20489;-76
2022/04/29 20:09:15;;;;;;;5.70;3.83;;;;;;;9.10;78.59;103024.28;10377672;28;20116;-76
2022/04/29 20:14:18;;;;;;;15.77;5.38;;;;;;;8.90;80.73;103036.81;10360370;28;20125;-75
2022/04/29 20:19:19;;;;;;;5.32;4.82;;;;;;;8.73;81.65;103041.00;10377798;28;20026;-75
2022/04/29 20:24:20;;;;;;;4.53;4.18;;;;;;;8.69;80.89;103044.13;10376342;28;20389;-75
2022/04/29 20:29:21;;;;;;;5.88;4.82;;;;;;;8.53;82.64;103047.28;10376493;28;20056;-75
2022/04/29 20:34:21;;;;;;;7.57;4.45;;;;;;;8.40;82.63;103049.31;10376818;28;20128;-75
2022/04/29 20:44:44;;;;;;;7.43;4.47;;;;;;;8.32;82.66;103058.88;10375325;28;20120;-76
2022/04/29 20:49:44;;;;;;;5.95;4.55;;;;;;;8.25;83.90;103062.22;10360160;28;20042;-75
2022/04/29 20:54:45;;;;;;;4.93;3.10;;;;;;;8.24;82.21;103061.38;10375725;28;20050;-75
2022/04/29 20:59:45;;;;;;;4.53;3.50;;;;;;;8.21;82.57;103061.63;10375955;28;20042;-75
2022/04/29 21:04:46;;;;;;;6.82;3.78;;;;;;;8.16;84.47;103056.59;10358044;28;20125;-75
2022/04/29 21:09:46;;;;;;;7.88;3.55;;;;;;;8.24;83.67;103053.28;10375203;28;20044;-75
2022/04/29 21:14:47;;;;;;;5.75;3.25;;;;;;;8.20;84.12;103059.06;10375444;28;20112;-75
2022/04/29 21:19:47;;;;;;;4.72;3.28;;;;;;;8.18;82.78;103066.44;10373886;28;20080;-75
2022/04/29 21:24:47;;;;;;;6.20;3.53;;;;;;;8.06;82.25;103050.28;10375203;28;20042;-75
2022/04/29 21:35:08;;;;;;;5.10;3.80;;;;;;;7.82;82.89;103055.03;10365497;28;20124;-75
2022/04/29 21:40:09;;;;;;;12.95;4.65;;;;;;;7.71;84.44;103057.75;10381514;28;20057;-75
2022/04/29 21:45:10;;;;;;;10.60;4.60;;;;;;;7.63;83.89;103056.53;10382471;28;20445;-75
2022/04/29 21:50:12;;;;;;;7.45;3.97;;;;;;;7.53;84.41;103060.09;10366161;28;20030;-75
2022/04/29 21:55:12;;;;;;;6.13;4.43;;;;;;;7.48;83.18;103057.78;10381215;28;20038;-75
2022/04/29 22:00:15;;;;;;;6.53;5.20;;;;;;;7.37;85.93;103061.34;10382077;28;20037;-75
2022/04/29 22:05:16;;;;;;;8.98;5.60;;;;;;;7.39;84.38;103047.72;10351846;28;20524;-75
2022/04/29 22:10:17;;;;;;;13.52;5.18;;;;;;;7.35;85.24;103057.91;10390418;28;20097;-76
2022/04/29 22:15:17;;;;;;;5.45;4.90;;;;;;;7.24;86.87;103060.59;10393473;28;20045;-75
2022/04/29 22:20:17;;;;;;;7.07;5.38;;;;;;;7.15;89.13;103056.81;10387120;28;20037;-75
2022/04/29 22:25:18;;;;;;;16.58;6.63;;;;;;;7.15;87.92;103059.50;10380815;28;20061;-75
2022/04/29 22:30:19;;;;;;;6.90;6.28;;;;;;;7.08;87.36;103049.31;10363591;28;20037;-75
2022/04/29 22:35:20;;;;;;;8.00;5.85;;;;;;;6.97;86.31;103055.56;10381360;28;20377;-75
2022/04/29 22:40:21;;;;;;;10.75;7.00;;;;;;;6.82;90.27;103046.84;10362387;28;20453;-75
2022/04/29 22:45:23;;;;;;;7.10;6.07;;;;;;;6.87;89.23;103046.50;10381464;28;20050;-75
2022/04/29 22:50:23;;;;;;;9.93;6.38;;;;;;;6.79;88.35;103049.78;10380062;28;20029;-75
2022/04/29 22:55:23;;;;;;;11.30;6.68;;;;;;;6.69;87.62;103054.19;10380316;28;20073;-75
2022/04/29 23:00:24;;;;;;;18.25;6.60;;;;;;;6.60;88.46;103044.97;10379824;28;20402;-75
2022/04/29 23:05:26;;;;;;;17.55;6.90;;;;;;;6.60;91.47;103047.66;10379270;28;20359;-75
2022/04/29 23:10:27;;;;;;;14.35;7.38;;;;;;;6.56;91.84;103050.72;10380709;28;20033;-75
2022/04/29 23:15:27;;;;;;;15.85;7.57;;;;;;;6.49;92.36;103053.03;10379738;28;20046;-75
2022/04/29 23:20:27;;;;;;;12.10;8.02;;;;;;;6.46;90.87;103055.97;10380046;28;20355;-74
2022/04/29 23:25:29;;;;;;;9.90;7.47;;;;;;;6.42;90.24;103049.97;10361259;28;20042;-74
2022/04/29 23:30:29;;;;;;;12.40;7.40;;;;;;;6.34;90.93;103054.19;10378613;28;20069;-75
2022/04/29 23:35:30;;;;;;;12.02;7.82;;;;;;;6.32;91.60;103040.00;10378085;28;20125;-75
2022/04/29 23:40:30;;;;;;;17.45;8.73;;;;;;;6.37;91.23;103040.50;10346220;28;20025;-74
2022/04/29 23:45:31;;;;;;;15.07;8.45;;;;;;;6.37;91.60;103045.91;10377589;28;20137;-75
2022/04/29 23:50:31;;;;;;;12.70;9.65;;;;;;;6.41;90.92;103044.69;10360492;28;20080;-75
2022/04/29 23:55:32;;;;;;;20.65;10.70;;;;;;;6.36;90.69;103047.72;10359690;28;20116;-75
